createdAt,value
2018-04-15T00:00:02.037Z,6.60
2018-04-15T00:02:04.622Z,5.17
2018-04-15T00:04:07.190Z,4.37
2018-04-15T00:06:09.795Z,4.23
2018-04-15T00:08:12.393Z,4.63
2018-04-15T00:10:16.041Z,3.80
2018-04-15T00:12:18.626Z,4.20
2018-04-15T00:14:22.063Z,4.07
2018-04-15T00:16:24.645Z,4.40
2018-04-15T00:18:27.980Z,3.97
2018-04-15T00:20:30.546Z,3.87
2018-04-15T00:22:33.128Z,4.03
2018-04-15T00:24:35.689Z,4.00
2018-04-15T00:26:38.274Z,3.70
2018-04-15T00:28:40.841Z,3.77
2018-04-15T00:30:43.405Z,3.57
2018-04-15T00:32:45.984Z,3.53
2018-04-15T00:34:48.538Z,3.60
2018-04-15T00:36:51.893Z,3.03
2018-04-15T00:38:54.466Z,3.40
2018-04-15T00:40:57.789Z,3.47
2018-04-15T00:43:01.167Z,3.10
2018-04-15T00:45:03.751Z,3.40
2018-04-15T00:47:07.097Z,3.30
2018-04-15T00:49:09.670Z,3.67
2018-04-15T00:51:13.062Z,3.57
2018-04-15T00:53:15.660Z,3.27
2018-04-15T00:55:18.250Z,3.53
2018-04-15T00:57:21.647Z,3.30
2018-04-15T00:59:24.981Z,3.90
2018-04-15T01:01:27.554Z,4.37
2018-04-15T01:03:30.633Z,4.57
2018-04-15T01:05:33.192Z,4.30
2018-04-15T01:07:35.985Z,4.17
2018-04-15T01:09:38.558Z,4.27
2018-04-15T01:11:41.183Z,4.07
2018-04-15T01:13:43.769Z,4.10
2018-04-15T01:15:46.330Z,4.03
2018-04-15T01:17:48.902Z,3.90
2018-04-15T01:19:51.614Z,4.33
2018-04-15T01:21:54.939Z,3.83
2018-04-15T01:23:57.517Z,3.50
2018-04-15T01:26:00.079Z,3.30
2018-04-15T01:28:02.640Z,3.37
2018-04-15T01:30:05.220Z,3.63
2018-04-15T01:32:07.782Z,3.43
2018-04-15T01:34:10.372Z,3.70
2018-04-15T01:36:12.935Z,3.93
2018-04-15T01:38:15.512Z,3.33
2018-04-15T01:40:18.688Z,3.40
2018-04-15T01:42:22.009Z,3.83
2018-04-15T01:44:25.787Z,3.40
2018-04-15T01:46:28.355Z,3.50
2018-04-15T01:48:30.966Z,4.10
2018-04-15T01:50:33.545Z,3.13
2018-04-15T01:52:36.189Z,3.27
2018-04-15T01:54:38.774Z,3.33
2018-04-15T01:56:41.351Z,3.70
2018-04-15T01:58:43.921Z,3.60
2018-04-15T02:00:46.572Z,3.33
2018-04-15T02:02:49.129Z,3.67
2018-04-15T02:04:52.504Z,3.70
2018-04-15T02:06:55.115Z,3.43
2018-04-15T02:08:57.689Z,3.17
2018-04-15T02:11:00.276Z,3.70
2018-04-15T02:13:03.290Z,3.70
2018-04-15T02:15:06.831Z,3.80
2018-04-15T02:17:10.161Z,3.33
2018-04-15T02:19:12.740Z,3.77
2018-04-15T02:21:15.318Z,3.90
2018-04-15T02:23:17.882Z,3.90
2018-04-15T02:25:20.546Z,3.67
2018-04-15T02:27:23.106Z,3.93
2018-04-15T02:29:25.672Z,3.93
2018-04-15T02:31:28.273Z,3.90
2018-04-15T02:33:30.838Z,4.20
2018-04-15T02:35:33.430Z,3.77
2018-04-15T02:37:36.551Z,3.97
2018-04-15T02:39:39.888Z,3.73
2018-04-15T02:41:42.470Z,3.73
2018-04-15T02:43:45.036Z,4.30
2018-04-15T02:45:47.826Z,3.67
2018-04-15T02:47:50.436Z,3.83
2018-04-15T02:49:53.098Z,3.70
2018-04-15T02:51:55.734Z,4.13
2018-04-15T02:53:58.297Z,3.80
2018-04-15T02:56:00.871Z,4.20
2018-04-15T02:58:03.500Z,3.67
2018-04-15T03:00:06.834Z,4.20
2018-04-15T03:02:09.454Z,4.67
2018-04-15T03:04:12.005Z,4.23
2018-04-15T03:06:14.600Z,3.83
2018-04-15T03:08:17.165Z,4.10
2018-04-15T03:10:19.738Z,3.80
2018-04-15T03:12:22.325Z,4.03
2018-04-15T03:14:24.905Z,4.23
2018-04-15T03:16:27.580Z,4.10
2018-04-15T03:18:30.155Z,3.83
2018-04-15T03:20:32.713Z,3.90
2018-04-15T03:22:35.330Z,4.20
2018-04-15T03:24:38.663Z,3.53
2018-04-15T03:26:41.229Z,4.13
2018-04-15T03:28:43.809Z,4.27
2018-04-15T03:30:46.376Z,4.30
2018-04-15T03:32:48.965Z,4.50
2018-04-15T03:34:52.299Z,4.70
2018-04-15T03:36:55.645Z,5.73
2018-04-15T03:38:58.229Z,5.60
2018-04-15T03:41:01.566Z,6.00
2018-04-15T03:43:04.921Z,5.13
2018-04-15T03:45:07.472Z,4.50
2018-04-15T03:47:10.034Z,4.13
2018-04-15T03:49:12.621Z,4.43
2018-04-15T03:51:15.184Z,4.50
2018-04-15T03:53:17.784Z,3.87
2018-04-15T03:55:20.398Z,4.47
2018-04-15T03:57:23.728Z,4.30
2018-04-15T03:59:26.314Z,3.83
2018-04-15T04:01:28.874Z,4.30
2018-04-15T04:03:31.449Z,4.50
2018-04-15T04:05:34.043Z,4.30
2018-04-15T04:07:36.602Z,4.63
2018-04-15T04:09:39.192Z,4.47
2018-04-15T04:11:41.765Z,4.10
2018-04-15T04:13:44.359Z,4.80
2018-04-15T04:15:46.913Z,4.60
2018-04-15T04:18:01.466Z,5.20
2018-04-15T04:20:15.872Z,4.87
2018-04-15T04:22:30.987Z,4.47
2018-04-15T04:24:45.403Z,4.30
2018-04-15T04:26:47.976Z,4.67
2018-04-15T04:28:50.530Z,5.10
2018-04-15T04:30:53.877Z,4.80
2018-04-15T04:32:56.463Z,4.40
2018-04-15T04:34:59.055Z,4.83
2018-04-15T04:37:01.654Z,4.60
2018-04-15T04:39:05.849Z,4.80
2018-04-15T04:41:09.864Z,4.70
2018-04-15T04:43:13.224Z,4.70
2018-04-15T04:45:15.841Z,4.63
2018-04-15T04:47:18.423Z,4.47
2018-04-15T04:49:20.994Z,4.40
2018-04-15T04:51:23.594Z,5.13
2018-04-15T04:53:27.026Z,4.87
2018-04-15T04:55:29.643Z,4.90
2018-04-15T04:57:32.234Z,4.63
2018-04-15T04:59:34.824Z,4.90
2018-04-15T05:01:37.438Z,4.73
2018-04-15T05:03:40.850Z,5.00
2018-04-15T05:05:43.480Z,4.60
2018-04-15T05:07:46.137Z,4.70
2018-04-15T05:09:49.525Z,4.57
2018-04-15T05:11:52.133Z,4.40
2018-04-15T05:13:55.022Z,5.10
2018-04-15T05:15:57.620Z,4.90
2018-04-15T05:18:00.198Z,4.60
2018-04-15T05:20:02.807Z,4.47
2018-04-15T05:22:05.428Z,5.00
2018-04-15T05:24:08.789Z,5.10
2018-04-15T05:26:11.376Z,4.10
2018-04-15T05:28:13.991Z,4.60
2018-04-15T05:30:16.598Z,4.90
2018-04-15T05:32:19.410Z,5.40
2018-04-15T05:34:21.981Z,4.43
2018-04-15T05:36:24.607Z,5.23
2018-04-15T05:38:27.203Z,5.13
2018-04-15T05:40:30.628Z,4.40
2018-04-15T05:42:33.243Z,4.63
2018-04-15T05:44:35.854Z,4.93
2018-04-15T05:46:38.464Z,4.83
2018-04-15T05:48:41.060Z,5.27
2018-04-15T05:50:43.723Z,6.60
2018-04-15T05:52:47.101Z,5.67
2018-04-15T05:54:50.472Z,5.90
2018-04-15T05:56:53.075Z,5.47
2018-04-15T05:58:56.429Z,4.90
2018-04-15T06:00:59.025Z,5.27
2018-04-15T06:03:03.249Z,4.80
2018-04-15T06:05:06.675Z,5.37
2018-04-15T06:07:09.278Z,5.23
2018-04-15T06:09:11.879Z,5.20
2018-04-15T06:11:16.204Z,4.97
2018-04-15T06:13:21.228Z,5.00
2018-04-15T06:15:23.820Z,5.63
2018-04-15T06:17:27.191Z,5.33
2018-04-15T06:19:30.564Z,5.47
2018-04-15T06:21:33.146Z,5.43
2018-04-15T06:23:35.747Z,4.97
2018-04-15T06:25:39.101Z,5.20
2018-04-15T06:27:41.699Z,5.77
2018-04-15T06:29:44.336Z,5.50
2018-04-15T06:31:46.941Z,5.00
2018-04-15T06:33:49.650Z,5.30
2018-04-15T06:35:52.248Z,5.93
2018-04-15T06:37:54.832Z,5.03
2018-04-15T06:39:57.835Z,5.40
2018-04-15T06:42:00.523Z,5.30
2018-04-15T06:44:03.129Z,5.30
2018-04-15T06:46:06.531Z,4.60
2018-04-15T06:48:09.143Z,5.17
2018-04-15T06:50:11.772Z,4.80
2018-04-15T06:52:14.351Z,5.80
2018-04-15T06:54:16.965Z,4.77
2018-04-15T06:56:19.598Z,5.67
2018-04-15T06:58:22.935Z,5.80
2018-04-15T07:00:25.624Z,5.10
2018-04-15T07:02:28.236Z,4.73
2018-04-15T07:04:30.899Z,5.30
2018-04-15T07:06:34.272Z,5.80
2018-04-15T07:08:36.873Z,5.30
2018-04-15T07:10:39.495Z,5.77
2018-04-15T07:12:42.082Z,5.50
2018-04-15T07:14:44.694Z,5.07
2018-04-15T07:16:48.060Z,5.30
2018-04-15T07:18:50.666Z,5.13
2018-04-15T07:20:54.609Z,5.03
2018-04-15T07:22:57.211Z,5.30
2018-04-15T07:24:59.808Z,5.33
2018-04-15T07:27:03.167Z,5.57
2018-04-15T07:29:05.797Z,5.30
2018-04-15T07:31:08.408Z,5.47
2018-04-15T07:33:11.007Z,5.87
2018-04-15T07:35:13.617Z,5.77
2018-04-15T07:37:16.288Z,5.73
2018-04-15T07:39:19.644Z,5.60
2018-04-15T07:41:22.301Z,5.83
2018-04-15T07:43:25.685Z,6.40
2018-04-15T07:45:28.302Z,5.43
2018-04-15T07:47:30.961Z,6.13
2018-04-15T07:49:33.566Z,6.37
2018-04-15T07:51:36.944Z,5.70
2018-04-15T07:53:39.531Z,5.93
2018-04-15T07:55:42.904Z,5.43
2018-04-15T07:57:45.536Z,5.70
2018-04-15T07:59:48.162Z,5.47
2018-04-15T08:01:51.593Z,5.77
2018-04-15T08:03:55.099Z,5.90
2018-04-15T08:05:57.888Z,6.43
2018-04-15T08:08:00.595Z,5.43
2018-04-15T08:10:04.317Z,5.50
2018-04-15T08:12:07.695Z,5.57
2018-04-15T08:14:10.289Z,5.57
2018-04-15T08:16:13.665Z,5.97
2018-04-15T08:18:16.240Z,5.23
2018-04-15T08:20:18.831Z,5.97
2018-04-15T08:22:21.668Z,6.20
2018-04-15T08:24:24.260Z,6.77
2018-04-15T08:26:26.877Z,6.57
2018-04-15T08:28:29.471Z,6.73
2018-04-15T08:30:32.074Z,5.90
2018-04-15T08:32:34.682Z,6.70
2018-04-15T08:34:38.110Z,6.30
2018-04-15T08:36:40.721Z,5.93
2018-04-15T08:38:43.319Z,6.83
2018-04-15T08:40:46.733Z,6.57
2018-04-15T08:42:49.416Z,6.07
2018-04-15T08:44:52.008Z,6.10
2018-04-15T08:46:54.743Z,6.10
2018-04-15T08:48:58.103Z,6.57
2018-04-15T08:51:00.739Z,6.20
2018-04-15T08:53:03.428Z,6.53
2018-04-15T08:55:06.017Z,6.60
2018-04-15T08:57:08.636Z,6.13
2018-04-15T08:59:11.997Z,6.10
2018-04-15T09:01:14.621Z,6.40
2018-04-15T09:03:17.212Z,6.30
2018-04-15T09:05:19.800Z,7.03
2018-04-15T09:07:23.948Z,7.47
2018-04-15T09:09:27.303Z,7.57
2018-04-15T09:11:29.945Z,7.90
2018-04-15T09:13:32.533Z,7.37
2018-04-15T09:15:35.132Z,7.63
2018-04-15T09:17:37.804Z,7.13
2018-04-15T09:19:41.165Z,6.50
2018-04-15T09:21:43.823Z,7.30
2018-04-15T09:23:46.453Z,6.67
2018-04-15T09:25:49.065Z,6.70
2018-04-15T09:27:52.431Z,5.93
2018-04-15T09:29:55.021Z,6.40
2018-04-15T09:31:58.412Z,7.07
2018-04-15T09:34:01.879Z,7.27
2018-04-15T09:36:04.473Z,6.40
2018-04-15T09:38:07.080Z,6.60
2018-04-15T09:40:09.701Z,6.53
2018-04-15T09:42:12.328Z,6.53
2018-04-15T09:44:14.951Z,6.40
2018-04-15T09:46:17.570Z,6.77
2018-04-15T09:48:20.948Z,6.33
2018-04-15T09:50:24.308Z,6.37
2018-04-15T09:52:26.927Z,6.67
2018-04-15T09:54:29.597Z,7.17
2018-04-15T09:56:34.049Z,7.33
2018-04-15T09:58:36.696Z,7.17
2018-04-15T10:00:40.049Z,6.33
2018-04-15T10:02:42.658Z,5.77
2018-04-15T10:04:46.015Z,6.53
2018-04-15T10:06:48.640Z,5.60
2018-04-15T10:08:51.577Z,5.73
2018-04-15T10:10:54.183Z,5.70
2018-04-15T10:12:58.123Z,5.67
2018-04-15T10:15:02.255Z,5.70
2018-04-15T10:17:09.689Z,7.33
2018-04-15T10:19:15.046Z,6.33
2018-04-15T10:21:17.681Z,6.17
2018-04-15T10:23:20.390Z,5.73
2018-04-15T10:25:23.077Z,6.00
2018-04-15T10:27:25.692Z,9.67
2018-04-15T10:29:28.339Z,12.33
2018-04-15T10:31:30.933Z,5.57
2018-04-15T10:33:34.200Z,6.30
2018-04-15T10:35:36.843Z,6.17
2018-04-15T10:37:40.193Z,5.87
2018-04-15T10:39:42.804Z,5.93
2018-04-15T10:41:46.216Z,5.70
2018-04-15T10:43:48.839Z,5.50
2018-04-15T10:45:51.436Z,5.43
2018-04-15T10:47:54.957Z,5.43
2018-04-15T10:49:57.598Z,5.07
2018-04-15T10:52:00.192Z,6.83
2018-04-15T10:54:03.580Z,5.90
2018-04-15T10:56:06.936Z,5.60
2018-04-15T10:58:09.527Z,5.83
2018-04-15T11:00:12.156Z,6.07
2018-04-15T11:02:14.751Z,6.00
2018-04-15T11:04:17.365Z,5.63
2018-04-15T11:06:19.958Z,6.37
2018-04-15T11:08:23.349Z,5.50
2018-04-15T11:10:26.739Z,5.77
2018-04-15T11:12:30.147Z,7.60
2018-04-15T11:14:32.758Z,8.43
2018-04-15T11:16:35.383Z,5.93
2018-04-15T11:18:38.736Z,5.33
2018-04-15T11:20:42.111Z,5.37
2018-04-15T11:22:44.702Z,5.80
2018-04-15T11:24:47.317Z,5.37
2018-04-15T11:26:50.675Z,4.97
2018-04-15T11:28:53.389Z,5.03
2018-04-15T11:30:56.768Z,5.47
2018-04-15T11:33:00.116Z,4.60
2018-04-15T11:35:02.776Z,5.00
2018-04-15T11:37:05.380Z,5.13
2018-04-15T11:39:07.970Z,4.63
2018-04-15T11:41:10.589Z,4.93
2018-04-15T11:43:13.199Z,4.80
2018-04-15T11:45:15.869Z,5.00
2018-04-15T11:47:18.460Z,5.30
2018-04-15T11:49:21.927Z,5.30
2018-04-15T11:51:24.548Z,5.63
2018-04-15T11:53:27.889Z,4.97
2018-04-15T11:55:30.495Z,6.17
2018-04-15T11:57:33.116Z,6.10
2018-04-15T11:59:35.773Z,6.20
2018-04-15T12:01:39.168Z,6.20
2018-04-15T12:03:42.533Z,5.77
2018-04-15T12:05:45.139Z,9.00
2018-04-15T12:07:47.754Z,10.37
2018-04-15T12:09:50.341Z,9.27
2018-04-15T12:11:52.966Z,6.63
2018-04-15T12:13:55.561Z,6.10
2018-04-15T12:15:58.406Z,5.73
2018-04-15T12:18:01.777Z,6.77
2018-04-15T12:20:04.372Z,7.00
2018-04-15T12:22:08.887Z,7.07
2018-04-15T12:24:12.284Z,6.57
2018-04-15T12:26:15.664Z,6.63
2018-04-15T12:28:18.345Z,6.93
2018-04-15T12:30:20.941Z,6.97
2018-04-15T12:32:23.566Z,6.90
2018-04-15T12:34:26.162Z,5.77
2018-04-15T12:36:28.898Z,5.90
2018-04-15T12:38:31.488Z,7.00
2018-04-15T12:40:34.105Z,6.37
2018-04-15T12:42:37.480Z,6.20
2018-04-15T12:44:40.855Z,6.60
2018-04-15T12:46:43.693Z,5.93
2018-04-15T12:48:46.311Z,7.67
2018-04-15T12:50:48.907Z,6.67
2018-04-15T12:52:51.514Z,7.33
2018-04-15T12:54:54.129Z,7.87
2018-04-15T12:56:56.740Z,7.27
2018-04-15T12:59:00.111Z,7.37
2018-04-15T13:01:02.732Z,6.53
2018-04-15T13:03:05.385Z,7.87
2018-04-15T13:05:08.761Z,7.03
2018-04-15T13:07:11.408Z,7.30
2018-04-15T13:09:14.104Z,8.03
2018-04-15T13:11:16.731Z,7.53
2018-04-15T13:13:20.279Z,7.70
2018-04-15T13:15:22.885Z,7.97
2018-04-15T13:17:25.787Z,8.23
2018-04-15T13:19:28.390Z,7.73
2018-04-15T13:21:30.991Z,7.63
2018-04-15T13:23:33.600Z,9.00
2018-04-15T13:25:36.212Z,7.80
2018-04-15T13:27:39.698Z,8.00
2018-04-15T13:29:42.293Z,7.70
2018-04-15T13:31:44.875Z,8.47
2018-04-15T13:33:47.511Z,7.67
2018-04-15T13:35:50.117Z,7.47
2018-04-15T13:37:52.730Z,7.60
2018-04-15T13:39:55.353Z,8.37
2018-04-15T13:41:57.948Z,8.03
2018-04-15T13:44:00.589Z,7.30
2018-04-15T13:46:03.180Z,8.27
2018-04-15T13:48:05.781Z,7.80
2018-04-15T13:50:08.380Z,8.40
2018-04-15T13:52:10.973Z,8.07
2018-04-15T13:54:13.588Z,7.33
2018-04-15T13:56:16.196Z,7.53
2018-04-15T13:58:19.584Z,7.63
2018-04-15T14:00:22.984Z,7.50
2018-04-15T14:02:25.607Z,7.70
2018-04-15T14:04:28.215Z,7.43
2018-04-15T14:06:31.595Z,7.10
2018-04-15T14:08:34.231Z,7.73
2018-04-15T14:10:37.125Z,7.60
2018-04-15T14:12:39.726Z,6.90
2018-04-15T14:14:42.353Z,6.47
2018-04-15T14:16:44.958Z,6.83
2018-04-15T14:18:47.600Z,6.37
2018-04-15T14:20:50.201Z,5.90
2018-04-15T14:22:53.322Z,6.30
2018-04-15T14:24:56.718Z,5.60
2018-04-15T14:27:00.096Z,5.50
2018-04-15T14:29:02.718Z,6.10
2018-04-15T14:31:05.325Z,5.60
2018-04-15T14:33:07.922Z,5.50
2018-04-15T14:35:10.589Z,5.00
2018-04-15T14:37:13.201Z,5.20
2018-04-15T14:39:15.827Z,5.23
2018-04-15T14:41:18.445Z,5.43
2018-04-15T14:43:21.040Z,7.30
2018-04-15T14:45:23.668Z,6.93
2018-04-15T14:47:26.295Z,7.70
2018-04-15T14:49:28.912Z,7.20
2018-04-15T14:51:31.508Z,6.53
2018-04-15T14:53:34.877Z,6.93
2018-04-15T14:55:37.522Z,6.33
2018-04-15T14:57:40.137Z,6.73
2018-04-15T14:59:42.753Z,6.73
2018-04-15T15:01:45.358Z,7.17
2018-04-15T15:03:48.735Z,6.60
2018-04-15T15:05:51.357Z,6.33
2018-04-15T15:07:54.844Z,6.37
2018-04-15T15:09:57.461Z,6.80
2018-04-15T15:12:00.065Z,6.80
2018-04-15T15:14:02.676Z,7.33
2018-04-15T15:16:05.324Z,6.27
2018-04-15T15:18:07.917Z,6.20
2018-04-15T15:20:10.519Z,5.60
2018-04-15T15:22:13.096Z,6.63
2018-04-15T15:24:16.593Z,5.97
2018-04-15T15:26:19.249Z,5.17
2018-04-15T15:28:22.627Z,5.37
2018-04-15T15:30:25.278Z,5.00
2018-04-15T15:32:27.862Z,5.40
2018-04-15T15:34:30.457Z,4.30
2018-04-15T15:36:33.130Z,4.03
2018-04-15T15:38:36.046Z,3.93
2018-04-15T15:40:38.668Z,4.40
2018-04-15T15:42:41.286Z,4.37
2018-04-15T15:44:44.640Z,4.10
2018-04-15T15:46:47.247Z,4.40
2018-04-15T15:48:50.679Z,4.30
2018-04-15T15:50:53.306Z,3.80
2018-04-15T15:52:56.674Z,4.17
2018-04-15T15:54:59.319Z,4.10
2018-04-15T15:57:01.945Z,4.53
2018-04-15T15:59:05.288Z,4.50
2018-04-15T16:01:07.920Z,3.90
2018-04-15T16:03:11.297Z,3.97
2018-04-15T16:05:13.888Z,4.00
2018-04-15T16:07:17.259Z,4.40
2018-04-15T16:09:19.860Z,4.43
2018-04-15T16:11:23.996Z,3.60
2018-04-15T16:13:26.595Z,4.33
2018-04-15T16:15:29.254Z,4.23
2018-04-15T16:17:31.860Z,3.70
2018-04-15T16:19:34.469Z,4.23
2018-04-15T16:21:37.892Z,4.00
2018-04-15T16:23:40.736Z,4.50
2018-04-15T16:25:44.116Z,4.53
2018-04-15T16:27:46.708Z,4.40
2018-04-15T16:29:50.076Z,4.37
2018-04-15T16:31:52.693Z,4.37
2018-04-15T16:33:55.279Z,4.40
2018-04-15T16:35:57.916Z,4.47
2018-04-15T16:38:01.280Z,4.83
2018-04-15T16:40:03.888Z,4.73
2018-04-15T16:42:07.259Z,4.40
2018-04-15T16:44:09.869Z,4.60
2018-04-15T16:46:12.504Z,4.60
2018-04-15T16:48:15.094Z,4.63
2018-04-15T16:50:18.448Z,4.97
2018-04-15T16:52:23.033Z,5.03
2018-04-15T16:54:25.652Z,4.87
2018-04-15T16:56:28.297Z,5.90
2018-04-15T16:58:30.903Z,5.97
2018-04-15T17:00:33.534Z,6.47
2018-04-15T17:02:36.156Z,6.50
2018-04-15T17:04:38.759Z,6.30
2018-04-15T17:06:42.181Z,6.70
2018-04-15T17:08:44.797Z,6.60
2018-04-15T17:10:48.430Z,9.90
2018-04-15T17:12:54.247Z,13.93
2018-04-15T17:14:56.865Z,10.93
2018-04-15T17:16:59.520Z,9.67
2018-04-15T17:19:02.905Z,8.50
2018-04-15T17:21:05.568Z,9.23
2018-04-15T17:23:08.196Z,10.43
2018-04-15T17:25:10.819Z,10.03
2018-04-15T17:27:13.483Z,10.30
2018-04-15T17:29:16.081Z,11.13
2018-04-15T17:31:19.432Z,11.20
2018-04-15T17:33:22.036Z,12.47
2018-04-15T17:35:24.686Z,11.90
2018-04-15T17:37:28.078Z,10.83
2018-04-15T17:39:30.696Z,11.63
2018-04-15T17:41:34.083Z,12.07
2018-04-15T17:43:36.752Z,12.00
2018-04-15T17:45:39.387Z,12.07
2018-04-15T17:47:42.024Z,12.43
2018-04-15T17:49:45.420Z,12.20
2018-04-15T17:51:48.055Z,11.67
2018-04-15T17:53:50.692Z,11.83
2018-04-15T17:55:53.400Z,12.70
2018-04-15T17:57:56.036Z,12.37
2018-04-15T17:59:58.663Z,13.20
2018-04-15T18:02:01.313Z,15.10
2018-04-15T18:04:04.745Z,15.40
2018-04-15T18:06:07.350Z,15.47
2018-04-15T18:08:10.034Z,15.93
2018-04-15T18:10:12.645Z,14.00
2018-04-15T18:12:15.249Z,12.90
2018-04-15T18:14:17.893Z,12.40
2018-04-15T18:16:20.492Z,12.93
2018-04-15T18:18:23.144Z,13.03
2018-04-15T18:20:25.762Z,13.80
2018-04-15T18:22:29.519Z,13.93
2018-04-15T18:24:32.140Z,14.43
2018-04-15T18:26:36.440Z,13.37
2018-04-15T18:28:39.939Z,12.13
2018-04-15T18:30:43.317Z,12.13
2018-04-15T18:32:45.959Z,10.77
2018-04-15T18:34:48.585Z,11.20
2018-04-15T18:36:51.249Z,10.30
2018-04-15T18:38:54.652Z,12.97
2018-04-15T18:40:58.084Z,16.60
2018-04-15T18:43:00.688Z,16.53
2018-04-15T18:45:03.324Z,13.57
2018-04-15T18:47:05.936Z,12.60
2018-04-15T18:49:08.702Z,14.67
2018-04-15T18:51:11.351Z,13.40
2018-04-15T18:53:13.935Z,12.93
2018-04-15T18:55:16.626Z,11.87
2018-04-15T18:57:19.267Z,10.97
2018-04-15T18:59:21.886Z,10.43
2018-04-15T19:01:24.533Z,10.97
2018-04-15T19:03:27.155Z,10.70
2018-04-15T19:05:29.880Z,11.33
2018-04-15T19:07:32.487Z,11.37
2018-04-15T19:09:35.108Z,11.40
2018-04-15T19:11:38.484Z,11.33
2018-04-15T19:13:41.893Z,10.73
2018-04-15T19:15:45.313Z,12.67
2018-04-15T19:17:47.956Z,13.30
2018-04-15T19:19:51.339Z,13.03
2018-04-15T19:21:54.006Z,12.53
2018-04-15T19:23:56.765Z,11.77
2018-04-15T19:25:59.380Z,11.60
2018-04-15T19:28:02.765Z,11.20
2018-04-15T19:30:06.290Z,11.67
2018-04-15T19:32:08.947Z,10.83
2018-04-15T19:34:12.391Z,10.40
2018-04-15T19:36:15.014Z,11.33
2018-04-15T19:38:18.388Z,11.67
2018-04-15T19:40:21.035Z,11.53
2018-04-15T19:42:23.655Z,10.57
2018-04-15T19:44:27.062Z,11.07
2018-04-15T19:46:29.676Z,11.50
2018-04-15T19:48:32.317Z,16.60
2018-04-15T19:50:34.937Z,13.53
2018-04-15T19:52:37.545Z,15.47
2018-04-15T19:54:41.006Z,12.60
2018-04-15T19:56:43.567Z,13.73
2018-04-15T19:58:46.194Z,13.57
2018-04-15T20:00:49.577Z,12.73
2018-04-15T20:02:52.943Z,13.60
2018-04-15T20:04:55.670Z,14.13
2018-04-15T20:06:58.357Z,15.27
2018-04-15T20:09:01.779Z,14.10
2018-04-15T20:11:04.415Z,13.93
2018-04-15T20:13:07.041Z,14.43
2018-04-15T20:15:09.680Z,14.50
2018-04-15T20:17:12.285Z,13.57
2018-04-15T20:19:15.068Z,15.17
2018-04-15T20:21:17.708Z,13.80
2018-04-15T20:23:20.297Z,13.47
2018-04-15T20:25:22.897Z,12.77
2018-04-15T20:27:25.529Z,12.23
2018-04-15T20:29:28.152Z,12.47
2018-04-15T20:31:30.775Z,12.37
2018-04-15T20:33:33.392Z,13.80
2018-04-15T20:35:36.625Z,12.83
2018-04-15T20:37:39.280Z,11.37
2018-04-15T20:39:42.645Z,11.30
2018-04-15T20:41:45.280Z,10.97
2018-04-15T20:43:47.893Z,11.50
2018-04-15T20:45:50.529Z,11.17
2018-04-15T20:47:53.268Z,10.70
2018-04-15T20:49:56.636Z,14.97
2018-04-15T20:51:59.256Z,12.43
2018-04-15T20:54:01.881Z,10.30
2018-04-15T20:56:04.486Z,8.87
2018-04-15T20:58:07.869Z,8.57
2018-04-15T21:00:10.475Z,8.47
2018-04-15T21:02:13.111Z,8.53
2018-04-15T21:04:15.714Z,7.83
2018-04-15T21:06:19.052Z,8.00
2018-04-15T21:08:21.704Z,7.80
2018-04-15T21:10:24.286Z,8.67
2018-04-15T21:12:26.918Z,7.70
2018-04-15T21:14:29.505Z,8.40
2018-04-15T21:16:32.928Z,9.00
2018-04-15T21:18:36.304Z,9.80
2018-04-15T21:20:39.831Z,10.27
2018-04-15T21:22:42.459Z,11.70
2018-04-15T21:24:45.851Z,11.87
2018-04-15T21:26:49.225Z,12.40
2018-04-15T21:28:51.872Z,12.77
2018-04-15T21:30:54.515Z,13.80
2018-04-15T21:32:57.132Z,14.63
2018-04-15T21:34:59.737Z,13.87
2018-04-15T21:37:03.140Z,13.60
2018-04-15T21:39:06.527Z,12.70
2018-04-15T21:41:09.884Z,11.90
2018-04-15T21:43:12.538Z,11.43
2018-04-15T21:45:15.135Z,11.10
2018-04-15T21:47:17.785Z,11.40
2018-04-15T21:49:20.385Z,12.47
2018-04-15T21:51:22.988Z,12.03
2018-04-15T21:53:26.368Z,11.50
2018-04-15T21:55:28.973Z,11.33
2018-04-15T21:57:31.600Z,13.00
2018-04-15T21:59:34.209Z,13.87
2018-04-15T22:01:37.580Z,13.57
2018-04-15T22:03:40.288Z,14.83
2018-04-15T22:05:43.631Z,14.50
2018-04-15T22:07:46.263Z,14.43
2018-04-15T22:09:48.887Z,13.90
2018-04-15T22:12:03.404Z,14.00
2018-04-15T22:14:06.019Z,13.13
2018-04-15T22:16:08.604Z,13.47
2018-04-15T22:18:11.220Z,13.57
2018-04-15T22:20:13.816Z,12.77
2018-04-15T22:22:16.408Z,12.73
2018-04-15T22:24:20.536Z,12.77
2018-04-15T22:26:23.128Z,13.47
2018-04-15T22:28:26.496Z,13.13
2018-04-15T22:30:29.088Z,12.77
2018-04-15T22:32:31.671Z,12.17
2018-04-15T22:34:35.088Z,12.67
2018-04-15T22:36:37.689Z,12.53
2018-04-15T22:38:41.268Z,12.43
2018-04-15T22:40:43.876Z,12.80
2018-04-15T22:42:46.457Z,12.53
2018-04-15T22:44:49.113Z,11.57
2018-04-15T22:46:51.680Z,11.37
2018-04-15T22:48:56.084Z,12.30
2018-04-15T22:50:58.700Z,12.07
2018-04-15T22:53:01.284Z,12.40
2018-04-15T22:55:04.668Z,12.40
2018-04-15T22:57:13.242Z,12.93
2018-04-15T22:59:16.741Z,12.80
2018-04-15T23:01:19.332Z,14.63
2018-04-15T23:03:21.932Z,13.67
2018-04-15T23:05:26.109Z,13.37
2018-04-15T23:07:28.693Z,14.13
2018-04-15T23:09:31.320Z,15.03
2018-04-15T23:11:33.913Z,15.17
2018-04-15T23:13:36.552Z,15.67
2018-04-15T23:15:39.949Z,15.37
2018-04-15T23:17:42.553Z,13.50
2018-04-15T23:19:45.173Z,12.10
2018-04-15T23:21:47.744Z,10.43
2018-04-15T23:23:50.342Z,10.93
2018-04-15T23:25:53.727Z,11.63
2018-04-15T23:27:57.105Z,11.73
2018-04-15T23:29:59.825Z,11.93
2018-04-15T23:32:02.433Z,10.87
2018-04-15T23:34:05.020Z,12.37
2018-04-15T23:36:07.642Z,12.43
2018-04-15T23:38:10.244Z,12.70
2018-04-15T23:40:12.859Z,12.13
2018-04-15T23:42:15.717Z,11.67
2018-04-15T23:44:18.303Z,11.23
2018-04-15T23:46:21.000Z,9.83
2018-04-15T23:48:24.364Z,11.30
2018-04-15T23:50:26.987Z,10.53
2018-04-15T23:52:29.576Z,10.50
2018-04-15T23:54:32.177Z,11.07
2018-04-15T23:56:34.809Z,10.43
2018-04-15T23:58:37.409Z,10.67
